WAT1820 KPBI-KXNA
Flight info
| Callsign | WAT1820 |
|---|---|
| Flight time | 2h 34m |
| Altitude | 38000 |
| Route | TBIRD7 SMELZ Q116 JAWJA TURST IVLUH GAGLE ADDIE RZC |
| Aircraft | B38M/M-SDE1FGHILORVWXY/HB1 |
Departure
| Time | 2026-05-08 01:31 |
|---|---|
| Airport | Palm Beach International Airport (KPBI) |
Arrival
| Time | 2026-05-08 04:06 |
|---|---|
| Airport | Northwest Arkansas National Airport (KXNA) |
| Time | Latitude | Longitude | Altitude | Speed | Heading |
|---|---|---|---|---|---|
| 2026-05-08 00:50 | 26.67966 | -80.09352 | 31 ft | 0 kts | 114° |
| 2026-05-08 01:23 | 26.67964 | -80.09348 | 31 ft | 2 kts | 111° |
| 2026-05-08 01:23 | 26.67965 | -80.09323 | 32 ft | 5 kts | 73° |
| 2026-05-08 01:23 | 26.68000 | -80.09299 | 32 ft | 8 kts | 349° |
| 2026-05-08 01:23 | 26.68042 | -80.09346 | 32 ft | 10 kts | 306° |
| 2026-05-08 01:24 | 26.68090 | -80.09413 | 32 ft | 12 kts | 312° |
| 2026-05-08 01:24 | 26.68149 | -80.09496 | 32 ft | 15 kts | 290° |
| 2026-05-08 01:24 | 26.68159 | -80.09624 | 32 ft | 18 kts | 273° |
| 2026-05-08 01:24 | 26.68166 | -80.09764 | 34 ft | 15 kts | 272° |
| 2026-05-08 01:25 | 26.68170 | -80.09861 | 35 ft | 13 kts | 272° |
| 2026-05-08 01:25 | 26.68175 | -80.09973 | 35 ft | 16 kts | 273° |
| 2026-05-08 01:25 | 26.68181 | -80.10113 | 33 ft | 20 kts | 272° |
| 2026-05-08 01:25 | 26.68188 | -80.10278 | 32 ft | 23 kts | 272° |
| 2026-05-08 01:26 | 26.68196 | -80.10465 | 29 ft | 23 kts | 272° |
| 2026-05-08 01:26 | 26.68203 | -80.10625 | 27 ft | 19 kts | 273° |
| 2026-05-08 01:26 | 26.68208 | -80.10742 | 26 ft | 9 kts | 273° |
| 2026-05-08 01:26 | 26.68209 | -80.10754 | 26 ft | 0 kts | 273° |
| 2026-05-08 01:29 | 26.68209 | -80.10760 | 26 ft | 2 kts | 273° |
| 2026-05-08 01:29 | 26.68212 | -80.10792 | 25 ft | 6 kts | 280° |
| 2026-05-08 01:30 | 26.68252 | -80.10827 | 28 ft | 10 kts | 348° |
| 2026-05-08 01:30 | 26.68314 | -80.10826 | 23 ft | 6 kts | 43° |
| 2026-05-08 01:30 | 26.68318 | -80.10811 | 24 ft | 0 kts | 92° |
| 2026-05-08 01:31 | 26.68311 | -80.10647 | 27 ft | 59 kts | 93° |
| 2026-05-08 01:31 | 26.68277 | -80.09891 | 34 ft | 133 kts | 93° |
| 2026-05-08 01:31 | 26.68240 | -80.08685 | 327 ft | 167 kts | 91° |
| 2026-05-08 01:31 | 26.68219 | -80.07367 | 1146 ft | 168 kts | 95° |
| 2026-05-08 01:32 | 26.68183 | -80.05983 | 1856 ft | 191 kts | 91° |
| 2026-05-08 01:32 | 26.68447 | -80.04413 | 2391 ft | 222 kts | 66° |
| 2026-05-08 01:32 | 26.69218 | -80.02802 | 3011 ft | 246 kts | 60° |
| 2026-05-08 01:32 | 26.70068 | -80.01099 | 3902 ft | 256 kts | 59° |
| 2026-05-08 01:33 | 26.70956 | -79.99311 | 4723 ft | 271 kts | 54° |
| 2026-05-08 01:33 | 26.72358 | -79.97875 | 5529 ft | 275 kts | 24° |
| 2026-05-08 01:33 | 26.74171 | -79.97265 | 6613 ft | 274 kts | 8° |
| 2026-05-08 01:33 | 26.76092 | -79.96984 | 7442 ft | 283 kts | 356° |
| 2026-05-08 01:34 | 26.77968 | -79.97532 | 8422 ft | 280 kts | 330° |
| 2026-05-08 01:34 | 26.79471 | -79.98942 | 9212 ft | 288 kts | 306° |
| 2026-05-08 01:34 | 26.80363 | -80.00946 | 10114 ft | 290 kts | 288° |
| 2026-05-08 01:34 | 26.81060 | -80.03091 | 10718 ft | 306 kts | 289° |
| 2026-05-08 01:35 | 26.81805 | -80.05407 | 11144 ft | 326 kts | 289° |
| 2026-05-08 01:35 | 26.82581 | -80.07858 | 11631 ft | 341 kts | 288° |
| 2026-05-08 01:35 | 26.83375 | -80.10397 | 12377 ft | 345 kts | 288° |
| 2026-05-08 01:35 | 26.84166 | -80.12947 | 13227 ft | 348 kts | 289° |
| 2026-05-08 01:36 | 26.84963 | -80.15522 | 14014 ft | 352 kts | 289° |
| 2026-05-08 01:36 | 26.85766 | -80.18126 | 14745 ft | 355 kts | 289° |
| 2026-05-08 01:36 | 26.86576 | -80.20751 | 15477 ft | 358 kts | 289° |
| 2026-05-08 01:36 | 26.87390 | -80.23393 | 16218 ft | 360 kts | 289° |
| 2026-05-08 01:37 | 26.87932 | -80.25154 | 16699 ft | 362 kts | 289° |
| 2026-05-08 01:37 | 26.88755 | -80.27828 | 17405 ft | 364 kts | 289° |
| 2026-05-08 01:37 | 26.89582 | -80.30520 | 18102 ft | 367 kts | 289° |
| 2026-05-08 01:37 | 26.90471 | -80.33208 | 18694 ft | 370 kts | 295° |
| 2026-05-08 01:38 | 26.91944 | -80.35577 | 19286 ft | 374 kts | 312° |
| 2026-05-08 01:38 | 26.94029 | -80.37344 | 19894 ft | 381 kts | 328° |
| 2026-05-08 01:38 | 26.96472 | -80.38553 | 20474 ft | 385 kts | 333° |
| 2026-05-08 01:38 | 26.98967 | -80.39694 | 21023 ft | 388 kts | 334° |
| 2026-05-08 01:39 | 27.01489 | -80.40817 | 21579 ft | 391 kts | 334° |
| 2026-05-08 01:39 | 27.04029 | -80.41930 | 22126 ft | 393 kts | 334° |
| 2026-05-08 01:39 | 27.06591 | -80.43042 | 22656 ft | 396 kts | 334° |
| 2026-05-08 01:39 | 27.09175 | -80.44158 | 23187 ft | 399 kts | 334° |
| 2026-05-08 01:40 | 27.11776 | -80.45280 | 23675 ft | 401 kts | 334° |
| 2026-05-08 01:40 | 27.14354 | -80.46392 | 24074 ft | 404 kts | 334° |
| 2026-05-08 01:40 | 27.16968 | -80.47577 | 24484 ft | 406 kts | 332° |
| 2026-05-08 01:40 | 27.19591 | -80.48785 | 24880 ft | 409 kts | 333° |
| 2026-05-08 01:41 | 27.22242 | -80.50002 | 25290 ft | 412 kts | 333° |
| 2026-05-08 01:41 | 27.24903 | -80.51222 | 25696 ft | 415 kts | 333° |
| 2026-05-08 01:41 | 27.27587 | -80.52453 | 26095 ft | 417 kts | 333° |
| 2026-05-08 01:41 | 27.30278 | -80.53708 | 26488 ft | 419 kts | 330° |
| 2026-05-08 01:42 | 27.32745 | -80.55405 | 26809 ft | 415 kts | 316° |
| 2026-05-08 01:42 | 27.34725 | -80.57742 | 27155 ft | 412 kts | 303° |
| 2026-05-08 01:42 | 27.36095 | -80.60562 | 27517 ft | 411 kts | 292° |
| 2026-05-08 01:42 | 27.37374 | -80.63463 | 27846 ft | 416 kts | 296° |
| 2026-05-08 01:43 | 27.38743 | -80.66343 | 28225 ft | 418 kts | 296° |
| 2026-05-08 01:43 | 27.40134 | -80.69232 | 28596 ft | 421 kts | 296° |
| 2026-05-08 01:43 | 27.41542 | -80.72128 | 28950 ft | 423 kts | 296° |
| 2026-05-08 01:43 | 27.42946 | -80.75005 | 29313 ft | 426 kts | 296° |
| 2026-05-08 01:44 | 27.44379 | -80.77938 | 29658 ft | 428 kts | 296° |
| 2026-05-08 01:44 | 27.45820 | -80.80889 | 29999 ft | 431 kts | 296° |
| 2026-05-08 01:44 | 27.47270 | -80.83860 | 30293 ft | 433 kts | 296° |
| 2026-05-08 01:44 | 27.48727 | -80.86849 | 30585 ft | 435 kts | 296° |
| 2026-05-08 01:45 | 27.50185 | -80.89843 | 30879 ft | 437 kts | 296° |
| 2026-05-08 01:45 | 27.51647 | -80.92848 | 31244 ft | 437 kts | 296° |
| 2026-05-08 01:45 | 27.53090 | -80.95816 | 31623 ft | 436 kts | 296° |
| 2026-05-08 01:45 | 27.54546 | -80.98815 | 32020 ft | 435 kts | 296° |
| 2026-05-08 01:46 | 27.55999 | -81.01810 | 32419 ft | 434 kts | 296° |
| 2026-05-08 01:46 | 27.57450 | -81.04803 | 32821 ft | 433 kts | 296° |
| 2026-05-08 01:46 | 27.58893 | -81.07783 | 33229 ft | 432 kts | 296° |
| 2026-05-08 01:46 | 27.60315 | -81.10720 | 33633 ft | 431 kts | 296° |
| 2026-05-08 01:47 | 27.61748 | -81.13681 | 34038 ft | 430 kts | 296° |
| 2026-05-08 01:47 | 27.63184 | -81.16651 | 34394 ft | 429 kts | 296° |
| 2026-05-08 01:47 | 27.64611 | -81.19604 | 34791 ft | 427 kts | 296° |
| 2026-05-08 01:48 | 27.67434 | -81.25451 | 35484 ft | 426 kts | 296° |
| 2026-05-08 01:48 | 27.68854 | -81.28394 | 35819 ft | 425 kts | 296° |
| 2026-05-08 01:48 | 27.70268 | -81.31327 | 36167 ft | 425 kts | 296° |
| 2026-05-08 01:48 | 27.71680 | -81.34259 | 36500 ft | 424 kts | 296° |
| 2026-05-08 01:49 | 27.73090 | -81.37187 | 36820 ft | 423 kts | 296° |
| 2026-05-08 01:49 | 27.74478 | -81.40071 | 37136 ft | 423 kts | 296° |
| 2026-05-08 01:49 | 27.75883 | -81.42991 | 37445 ft | 422 kts | 296° |
| 2026-05-08 01:49 | 27.77290 | -81.45917 | 37746 ft | 422 kts | 296° |
| 2026-05-08 01:50 | 27.78692 | -81.48835 | 37996 ft | 422 kts | 296° |
| 2026-05-08 01:50 | 27.80091 | -81.51749 | 38033 ft | 421 kts | 296° |
| 2026-05-08 01:50 | 27.82869 | -81.57541 | 38033 ft | 417 kts | 296° |
| 2026-05-08 01:51 | 27.85613 | -81.63269 | 38035 ft | 417 kts | 296° |
| 2026-05-08 01:51 | 27.88377 | -81.69046 | 38039 ft | 416 kts | 296° |
| 2026-05-08 01:52 | 27.91124 | -81.74798 | 38036 ft | 415 kts | 296° |
| 2026-05-08 01:52 | 27.93856 | -81.80524 | 38037 ft | 415 kts | 295° |
| 2026-05-08 01:53 | 27.96596 | -81.86275 | 38035 ft | 415 kts | 295° |
| 2026-05-08 01:53 | 27.99338 | -81.92038 | 38035 ft | 415 kts | 295° |
| 2026-05-08 01:54 | 28.02059 | -81.97767 | 38037 ft | 415 kts | 295° |
| 2026-05-08 01:54 | 28.04798 | -82.03540 | 38035 ft | 415 kts | 295° |
| 2026-05-08 01:55 | 28.07611 | -82.09269 | 38032 ft | 418 kts | 303° |
| 2026-05-08 01:55 | 28.09625 | -82.11659 | 38044 ft | 424 kts | 317° |
| 2026-05-08 01:55 | 28.11982 | -82.13691 | 38038 ft | 427 kts | 318° |
| 2026-05-08 01:56 | 28.16771 | -82.17653 | 38066 ft | 427 kts | 319° |
| 2026-05-08 01:56 | 28.21601 | -82.21542 | 38055 ft | 425 kts | 319° |
| 2026-05-08 01:57 | 28.26451 | -82.25421 | 38055 ft | 426 kts | 319° |
| 2026-05-08 01:57 | 28.31255 | -82.29265 | 38053 ft | 426 kts | 319° |
| 2026-05-08 01:58 | 28.36105 | -82.33149 | 38045 ft | 426 kts | 319° |
| 2026-05-08 01:58 | 28.40954 | -82.37037 | 38041 ft | 426 kts | 319° |
| 2026-05-08 01:59 | 28.45778 | -82.40910 | 38083 ft | 425 kts | 319° |
| 2026-05-08 01:59 | 28.50593 | -82.44780 | 38044 ft | 422 kts | 319° |
| 2026-05-08 02:00 | 28.55393 | -82.48641 | 38046 ft | 422 kts | 319° |
| 2026-05-08 02:00 | 28.60161 | -82.52482 | 38046 ft | 422 kts | 319° |
| 2026-05-08 02:01 | 28.64957 | -82.56349 | 38043 ft | 422 kts | 319° |
| 2026-05-08 02:01 | 28.69755 | -82.60223 | 38038 ft | 422 kts | 319° |
| 2026-05-08 02:02 | 28.74527 | -82.64080 | 38041 ft | 422 kts | 319° |
| 2026-05-08 02:02 | 28.79316 | -82.67955 | 38041 ft | 421 kts | 318° |
| 2026-05-08 02:03 | 28.84102 | -82.71832 | 38033 ft | 421 kts | 318° |
| 2026-05-08 02:03 | 28.88869 | -82.75698 | 38037 ft | 421 kts | 318° |
| 2026-05-08 02:04 | 28.93644 | -82.79576 | 38042 ft | 421 kts | 318° |
| 2026-05-08 02:04 | 28.98384 | -82.83429 | 38034 ft | 420 kts | 318° |
| 2026-05-08 02:05 | 29.03156 | -82.87311 | 38026 ft | 420 kts | 318° |
| 2026-05-08 02:05 | 29.07895 | -82.91174 | 38057 ft | 420 kts | 317° |
| 2026-05-08 02:06 | 29.12654 | -82.95056 | 38031 ft | 419 kts | 317° |
| 2026-05-08 02:06 | 29.17409 | -82.98940 | 38031 ft | 419 kts | 317° |
| 2026-05-08 02:07 | 29.22143 | -83.02810 | 38030 ft | 419 kts | 317° |
| 2026-05-08 02:07 | 29.26302 | -83.07270 | 38030 ft | 401 kts | 298° |
| 2026-05-08 02:08 | 29.29319 | -83.12653 | 38023 ft | 402 kts | 297° |
| 2026-05-08 02:08 | 29.32251 | -83.18142 | 38031 ft | 402 kts | 296° |
| 2026-05-08 02:09 | 29.35134 | -83.23650 | 38026 ft | 402 kts | 296° |
| 2026-05-08 02:09 | 29.37987 | -83.29133 | 38050 ft | 401 kts | 296° |
| 2026-05-08 02:10 | 29.40839 | -83.34624 | 38021 ft | 399 kts | 296° |
| 2026-05-08 02:10 | 29.43663 | -83.40068 | 38023 ft | 399 kts | 296° |
| 2026-05-08 02:11 | 29.46508 | -83.45559 | 38024 ft | 399 kts | 296° |
| 2026-05-08 02:11 | 29.49350 | -83.51052 | 38019 ft | 399 kts | 296° |
| 2026-05-08 02:12 | 29.52170 | -83.56510 | 38030 ft | 398 kts | 296° |
| 2026-05-08 02:12 | 29.54996 | -83.61988 | 38021 ft | 398 kts | 296° |
| 2026-05-08 02:13 | 29.57801 | -83.67430 | 38021 ft | 398 kts | 296° |
| 2026-05-08 02:13 | 29.60610 | -83.72889 | 38017 ft | 398 kts | 296° |
| 2026-05-08 02:14 | 29.63428 | -83.78373 | 38015 ft | 398 kts | 296° |
| 2026-05-08 02:14 | 29.66245 | -83.83863 | 38023 ft | 398 kts | 296° |
| 2026-05-08 02:15 | 29.69037 | -83.89311 | 38054 ft | 397 kts | 295° |
| 2026-05-08 02:15 | 29.71826 | -83.94760 | 38019 ft | 392 kts | 295° |
| 2026-05-08 02:16 | 29.74598 | -84.00183 | 38019 ft | 393 kts | 295° |
| 2026-05-08 02:16 | 29.77353 | -84.05582 | 38018 ft | 393 kts | 295° |
| 2026-05-08 02:17 | 29.80127 | -84.11021 | 38018 ft | 393 kts | 295° |
| 2026-05-08 02:17 | 29.83535 | -84.15973 | 38010 ft | 401 kts | 304° |
| 2026-05-08 02:18 | 29.87226 | -84.20813 | 38016 ft | 401 kts | 304° |
| 2026-05-08 02:18 | 29.90908 | -84.25602 | 38012 ft | 401 kts | 304° |
| 2026-05-08 02:19 | 29.94622 | -84.30430 | 38006 ft | 402 kts | 304° |
| 2026-05-08 02:19 | 29.98346 | -84.35276 | 38009 ft | 403 kts | 304° |
| 2026-05-08 02:20 | 30.02040 | -84.40089 | 38022 ft | 399 kts | 304° |
| 2026-05-08 02:20 | 30.05717 | -84.44887 | 38000 ft | 398 kts | 304° |
| 2026-05-08 02:21 | 30.09370 | -84.49659 | 37997 ft | 398 kts | 304° |
| 2026-05-08 02:21 | 30.13046 | -84.54466 | 37985 ft | 398 kts | 304° |
| 2026-05-08 02:22 | 30.16692 | -84.59240 | 37993 ft | 398 kts | 304° |
| 2026-05-08 02:22 | 30.20360 | -84.64049 | 37981 ft | 398 kts | 304° |
| 2026-05-08 02:23 | 30.24025 | -84.68859 | 37987 ft | 397 kts | 304° |
| 2026-05-08 02:23 | 30.27648 | -84.73620 | 37975 ft | 396 kts | 304° |
| 2026-05-08 02:24 | 30.31297 | -84.78421 | 37992 ft | 394 kts | 304° |
| 2026-05-08 02:24 | 30.34886 | -84.83149 | 37973 ft | 392 kts | 304° |
| 2026-05-08 02:25 | 30.37885 | -84.87105 | 37969 ft | 393 kts | 304° |
| 2026-05-08 02:25 | 30.41488 | -84.91862 | 37970 ft | 392 kts | 304° |
| 2026-05-08 02:26 | 30.45088 | -84.96621 | 37970 ft | 392 kts | 304° |
| 2026-05-08 02:26 | 30.48670 | -85.01362 | 37960 ft | 392 kts | 304° |
| 2026-05-08 02:27 | 30.52277 | -85.06142 | 37976 ft | 392 kts | 303° |
| 2026-05-08 02:27 | 30.55846 | -85.10877 | 37973 ft | 392 kts | 303° |
| 2026-05-08 02:28 | 30.59434 | -85.15643 | 37978 ft | 392 kts | 303° |
| 2026-05-08 02:28 | 30.63029 | -85.20425 | 37984 ft | 392 kts | 303° |
| 2026-05-08 02:29 | 30.66596 | -85.25174 | 37990 ft | 392 kts | 303° |
| 2026-05-08 02:29 | 30.70182 | -85.29956 | 37988 ft | 392 kts | 303° |
| 2026-05-08 02:30 | 30.73765 | -85.34740 | 37975 ft | 391 kts | 303° |
| 2026-05-08 02:30 | 30.77326 | -85.39498 | 37987 ft | 391 kts | 303° |
| 2026-05-08 02:31 | 30.80901 | -85.44282 | 38005 ft | 391 kts | 303° |
| 2026-05-08 02:31 | 30.84471 | -85.49067 | 38016 ft | 391 kts | 303° |
| 2026-05-08 02:32 | 30.88022 | -85.53830 | 38035 ft | 391 kts | 303° |
| 2026-05-08 02:32 | 30.91574 | -85.58601 | 38019 ft | 387 kts | 303° |
| 2026-05-08 02:33 | 30.95107 | -85.63352 | 37925 ft | 387 kts | 303° |
| 2026-05-08 02:33 | 30.98613 | -85.68073 | 37936 ft | 387 kts | 303° |
| 2026-05-08 02:34 | 31.02143 | -85.72832 | 37958 ft | 387 kts | 303° |
| 2026-05-08 02:34 | 31.05671 | -85.77594 | 37976 ft | 387 kts | 303° |
| 2026-05-08 02:35 | 31.09175 | -85.82329 | 37979 ft | 387 kts | 303° |
| 2026-05-08 02:35 | 31.12699 | -85.87098 | 38006 ft | 387 kts | 303° |
| 2026-05-08 02:36 | 31.16220 | -85.91869 | 38009 ft | 387 kts | 303° |
| 2026-05-08 02:36 | 31.19719 | -85.96615 | 38035 ft | 385 kts | 302° |
| 2026-05-08 02:37 | 31.23183 | -86.01319 | 38026 ft | 383 kts | 302° |
| 2026-05-08 02:37 | 31.26668 | -86.06059 | 38020 ft | 383 kts | 302° |
| 2026-05-08 02:38 | 31.30147 | -86.10796 | 38019 ft | 383 kts | 302° |
| 2026-05-08 02:38 | 31.33603 | -86.15506 | 38001 ft | 383 kts | 302° |
| 2026-05-08 02:39 | 31.37078 | -86.20251 | 38006 ft | 384 kts | 302° |
| 2026-05-08 02:39 | 31.40557 | -86.25004 | 37996 ft | 384 kts | 302° |
| 2026-05-08 02:40 | 31.44031 | -86.29758 | 37998 ft | 383 kts | 302° |
| 2026-05-08 02:40 | 31.47479 | -86.34481 | 38037 ft | 383 kts | 302° |
| 2026-05-08 02:41 | 31.50926 | -86.39210 | 37991 ft | 379 kts | 302° |
| 2026-05-08 02:41 | 31.54338 | -86.43897 | 37997 ft | 380 kts | 302° |
| 2026-05-08 02:42 | 31.57774 | -86.48621 | 37995 ft | 380 kts | 302° |
| 2026-05-08 02:42 | 31.61210 | -86.53352 | 37964 ft | 380 kts | 302° |
| 2026-05-08 02:43 | 31.64623 | -86.58057 | 37998 ft | 380 kts | 302° |
| 2026-05-08 02:43 | 31.68065 | -86.62808 | 38015 ft | 381 kts | 302° |
| 2026-05-08 02:44 | 31.71481 | -86.67529 | 38018 ft | 381 kts | 302° |
| 2026-05-08 02:44 | 31.74916 | -86.72281 | 38023 ft | 381 kts | 302° |
| 2026-05-08 02:45 | 31.78333 | -86.77014 | 38025 ft | 379 kts | 301° |
| 2026-05-08 02:45 | 31.81750 | -86.81753 | 38005 ft | 379 kts | 301° |
| 2026-05-08 02:46 | 31.85169 | -86.86500 | 37998 ft | 379 kts | 301° |
| 2026-05-08 02:46 | 31.88566 | -86.91222 | 37976 ft | 379 kts | 301° |
| 2026-05-08 02:47 | 31.91981 | -86.95975 | 37990 ft | 379 kts | 301° |
| 2026-05-08 02:47 | 31.95369 | -87.00696 | 37954 ft | 378 kts | 301° |
| 2026-05-08 02:48 | 31.98737 | -87.05475 | 37965 ft | 377 kts | 300° |
| 2026-05-08 02:48 | 32.02040 | -87.10251 | 37981 ft | 377 kts | 300° |
| 2026-05-08 02:49 | 32.05362 | -87.15048 | 38010 ft | 376 kts | 300° |
| 2026-05-08 02:49 | 32.08641 | -87.19788 | 37965 ft | 373 kts | 300° |
| 2026-05-08 02:50 | 32.11926 | -87.24542 | 37967 ft | 374 kts | 300° |
| 2026-05-08 02:50 | 32.15201 | -87.29288 | 37974 ft | 373 kts | 300° |
| 2026-05-08 02:51 | 32.18485 | -87.34054 | 37991 ft | 373 kts | 300° |
| 2026-05-08 02:51 | 32.21737 | -87.38779 | 37982 ft | 373 kts | 300° |
| 2026-05-08 02:52 | 32.25012 | -87.43542 | 37987 ft | 373 kts | 300° |
| 2026-05-08 02:52 | 32.28269 | -87.48285 | 38005 ft | 373 kts | 300° |
| 2026-05-08 02:53 | 32.31540 | -87.53056 | 38000 ft | 372 kts | 300° |
| 2026-05-08 02:53 | 32.34794 | -87.57807 | 38037 ft | 368 kts | 300° |
| 2026-05-08 02:54 | 32.37999 | -87.62493 | 38061 ft | 367 kts | 300° |
| 2026-05-08 02:54 | 32.41205 | -87.67187 | 38077 ft | 368 kts | 300° |
| 2026-05-08 02:55 | 32.46036 | -87.74270 | 38113 ft | 368 kts | 300° |
| 2026-05-08 02:56 | 32.49240 | -87.78975 | 38131 ft | 369 kts | 300° |
| 2026-05-08 02:56 | 32.52465 | -87.83716 | 38145 ft | 369 kts | 299° |
| 2026-05-08 02:57 | 32.55680 | -87.88449 | 38146 ft | 368 kts | 299° |
| 2026-05-08 02:57 | 32.58887 | -87.93178 | 38142 ft | 368 kts | 299° |
| 2026-05-08 02:58 | 32.62099 | -87.97917 | 38157 ft | 366 kts | 299° |
| 2026-05-08 02:58 | 32.65280 | -88.02619 | 38126 ft | 365 kts | 299° |
| 2026-05-08 02:59 | 32.68441 | -88.07296 | 38108 ft | 365 kts | 299° |
| 2026-05-08 02:59 | 32.71625 | -88.12014 | 38091 ft | 366 kts | 299° |
| 2026-05-08 03:00 | 32.74818 | -88.16750 | 38079 ft | 366 kts | 299° |
| 2026-05-08 03:00 | 32.77989 | -88.21460 | 38068 ft | 366 kts | 299° |
| 2026-05-08 03:01 | 32.81173 | -88.26195 | 38074 ft | 366 kts | 299° |
| 2026-05-08 03:01 | 32.84363 | -88.30945 | 38072 ft | 366 kts | 299° |
| 2026-05-08 03:02 | 32.87526 | -88.35661 | 38059 ft | 366 kts | 299° |
| 2026-05-08 03:02 | 32.90702 | -88.40403 | 38062 ft | 365 kts | 298° |
| 2026-05-08 03:03 | 32.93858 | -88.45120 | 38064 ft | 366 kts | 298° |
| 2026-05-08 03:03 | 32.97040 | -88.49884 | 38056 ft | 366 kts | 298° |
| 2026-05-08 03:04 | 33.00195 | -88.54611 | 38062 ft | 366 kts | 298° |
| 2026-05-08 03:04 | 33.03373 | -88.59381 | 38062 ft | 366 kts | 298° |
| 2026-05-08 03:05 | 33.06529 | -88.64122 | 37990 ft | 366 kts | 298° |
| 2026-05-08 03:05 | 33.09697 | -88.68889 | 37990 ft | 366 kts | 298° |
| 2026-05-08 03:06 | 33.12862 | -88.73656 | 37997 ft | 366 kts | 298° |
| 2026-05-08 03:06 | 33.16007 | -88.78400 | 38074 ft | 366 kts | 298° |
| 2026-05-08 03:07 | 33.19161 | -88.83164 | 38030 ft | 365 kts | 298° |
| 2026-05-08 03:07 | 33.22314 | -88.87932 | 38033 ft | 366 kts | 298° |
| 2026-05-08 03:08 | 33.25448 | -88.92678 | 38044 ft | 366 kts | 298° |
| 2026-05-08 03:08 | 33.28601 | -88.97458 | 38057 ft | 366 kts | 298° |
| 2026-05-08 03:09 | 33.31758 | -89.02250 | 38054 ft | 366 kts | 298° |
| 2026-05-08 03:09 | 33.34888 | -89.07008 | 38076 ft | 366 kts | 298° |
| 2026-05-08 03:10 | 33.38039 | -89.11804 | 38080 ft | 366 kts | 298° |
| 2026-05-08 03:10 | 33.41184 | -89.16599 | 38079 ft | 366 kts | 298° |
| 2026-05-08 03:11 | 33.44310 | -89.21368 | 38069 ft | 366 kts | 298° |
| 2026-05-08 03:11 | 33.47454 | -89.26174 | 38071 ft | 366 kts | 297° |
| 2026-05-08 03:12 | 33.50597 | -89.30983 | 38074 ft | 366 kts | 297° |
| 2026-05-08 03:12 | 33.53723 | -89.35772 | 38073 ft | 366 kts | 297° |
| 2026-05-08 03:13 | 33.56861 | -89.40586 | 38072 ft | 366 kts | 297° |
| 2026-05-08 03:13 | 33.59472 | -89.44596 | 38072 ft | 366 kts | 297° |
| 2026-05-08 03:14 | 33.62613 | -89.49428 | 38076 ft | 366 kts | 297° |
| 2026-05-08 03:14 | 33.65726 | -89.54221 | 38066 ft | 366 kts | 297° |
| 2026-05-08 03:15 | 33.68856 | -89.59046 | 38112 ft | 366 kts | 298° |
| 2026-05-08 03:15 | 33.71975 | -89.63863 | 38065 ft | 363 kts | 297° |
| 2026-05-08 03:16 | 33.75064 | -89.68638 | 38068 ft | 364 kts | 297° |
| 2026-05-08 03:16 | 33.78171 | -89.73450 | 38066 ft | 364 kts | 297° |
| 2026-05-08 03:17 | 33.81262 | -89.78240 | 38075 ft | 364 kts | 297° |
| 2026-05-08 03:17 | 33.84366 | -89.83058 | 38067 ft | 364 kts | 297° |
| 2026-05-08 03:18 | 33.87451 | -89.87854 | 38066 ft | 364 kts | 297° |
| 2026-05-08 03:18 | 33.90558 | -89.92688 | 38070 ft | 364 kts | 297° |
| 2026-05-08 03:19 | 33.93641 | -89.97492 | 38065 ft | 364 kts | 297° |
| 2026-05-08 03:19 | 33.96733 | -90.02314 | 38121 ft | 361 kts | 298° |
| 2026-05-08 03:20 | 33.99791 | -90.07090 | 38065 ft | 359 kts | 298° |
| 2026-05-08 03:20 | 34.02826 | -90.11838 | 38067 ft | 359 kts | 298° |
| 2026-05-08 03:21 | 34.05888 | -90.16633 | 38065 ft | 359 kts | 298° |
| 2026-05-08 03:21 | 34.08925 | -90.21395 | 38078 ft | 360 kts | 298° |
| 2026-05-08 03:22 | 34.11984 | -90.26196 | 38084 ft | 359 kts | 297° |
| 2026-05-08 03:22 | 34.14899 | -90.31044 | 38095 ft | 357 kts | 296° |
| 2026-05-08 03:23 | 34.17776 | -90.35912 | 38099 ft | 357 kts | 296° |
| 2026-05-08 03:23 | 34.20676 | -90.40811 | 38102 ft | 358 kts | 296° |
| 2026-05-08 03:24 | 34.23563 | -90.45694 | 38123 ft | 358 kts | 296° |
| 2026-05-08 03:24 | 34.26459 | -90.50597 | 38110 ft | 358 kts | 296° |
| 2026-05-08 03:25 | 34.29335 | -90.55474 | 38110 ft | 358 kts | 296° |
| 2026-05-08 03:25 | 34.32226 | -90.60381 | 38108 ft | 358 kts | 296° |
| 2026-05-08 03:26 | 34.35099 | -90.65266 | 38108 ft | 358 kts | 296° |
| 2026-05-08 03:26 | 34.37989 | -90.70186 | 38100 ft | 358 kts | 295° |
| 2026-05-08 03:27 | 34.40876 | -90.75108 | 38094 ft | 358 kts | 295° |
| 2026-05-08 03:27 | 34.43740 | -90.79998 | 38088 ft | 359 kts | 295° |
| 2026-05-08 03:28 | 34.46634 | -90.84945 | 38083 ft | 359 kts | 295° |
| 2026-05-08 03:28 | 34.49502 | -90.89854 | 38085 ft | 356 kts | 295° |
| 2026-05-08 03:29 | 34.52363 | -90.94759 | 38085 ft | 356 kts | 295° |
| 2026-05-08 03:29 | 34.55228 | -90.99676 | 38085 ft | 356 kts | 295° |
| 2026-05-08 03:30 | 34.59512 | -91.07042 | 38082 ft | 356 kts | 295° |
| 2026-05-08 03:31 | 34.65209 | -91.16861 | 38077 ft | 357 kts | 295° |
| 2026-05-08 03:32 | 34.69512 | -91.24296 | 38085 ft | 358 kts | 295° |
| 2026-05-08 03:32 | 34.72368 | -91.29260 | 38082 ft | 352 kts | 289° |
| 2026-05-08 03:33 | 34.74217 | -91.34610 | 38099 ft | 344 kts | 285° |
| 2026-05-08 03:33 | 34.76159 | -91.39951 | 38092 ft | 345 kts | 285° |
| 2026-05-08 03:34 | 34.78132 | -91.45253 | 38093 ft | 345 kts | 286° |
| 2026-05-08 03:34 | 34.80127 | -91.50582 | 38096 ft | 345 kts | 286° |
| 2026-05-08 03:35 | 34.82124 | -91.55916 | 38090 ft | 347 kts | 285° |
| 2026-05-08 03:35 | 34.84115 | -91.61243 | 38085 ft | 347 kts | 285° |
| 2026-05-08 03:36 | 34.86236 | -91.66928 | 38085 ft | 347 kts | 285° |
| 2026-05-08 03:36 | 34.88218 | -91.72249 | 38079 ft | 347 kts | 285° |
| 2026-05-08 03:37 | 34.90211 | -91.77609 | 38068 ft | 347 kts | 285° |
| 2026-05-08 03:37 | 34.92201 | -91.82970 | 38078 ft | 347 kts | 285° |
| 2026-05-08 03:38 | 34.94189 | -91.88331 | 38072 ft | 347 kts | 285° |
| 2026-05-08 03:38 | 34.96176 | -91.93704 | 38068 ft | 348 kts | 285° |
| 2026-05-08 03:39 | 34.98161 | -91.99076 | 38124 ft | 348 kts | 285° |
| 2026-05-08 03:39 | 35.00142 | -92.04448 | 38071 ft | 345 kts | 285° |
| 2026-05-08 03:40 | 35.02100 | -92.09766 | 38076 ft | 346 kts | 285° |
| 2026-05-08 03:40 | 35.04070 | -92.15127 | 38070 ft | 346 kts | 285° |
| 2026-05-08 03:41 | 35.06037 | -92.20487 | 38072 ft | 346 kts | 285° |
| 2026-05-08 03:41 | 35.07990 | -92.25820 | 38069 ft | 346 kts | 285° |
| 2026-05-08 03:42 | 35.09956 | -92.31195 | 38057 ft | 347 kts | 285° |
| 2026-05-08 03:42 | 35.11926 | -92.36590 | 38061 ft | 348 kts | 284° |
| 2026-05-08 03:43 | 35.13882 | -92.41957 | 38073 ft | 348 kts | 284° |
| 2026-05-08 03:43 | 35.15849 | -92.47363 | 38050 ft | 348 kts | 284° |
| 2026-05-08 03:44 | 35.17813 | -92.52771 | 38051 ft | 348 kts | 284° |
| 2026-05-08 03:44 | 35.19764 | -92.58151 | 38058 ft | 348 kts | 284° |
| 2026-05-08 03:45 | 35.21726 | -92.63572 | 38053 ft | 347 kts | 284° |
| 2026-05-08 03:45 | 35.23665 | -92.68938 | 38052 ft | 346 kts | 284° |
| 2026-05-08 03:46 | 35.25295 | -92.73454 | 38052 ft | 346 kts | 284° |
| 2026-05-08 03:46 | 35.27229 | -92.78823 | 38049 ft | 346 kts | 284° |
| 2026-05-08 03:47 | 35.29176 | -92.84236 | 38046 ft | 346 kts | 284° |
| 2026-05-08 03:47 | 35.31117 | -92.89641 | 38045 ft | 346 kts | 284° |
| 2026-05-08 03:48 | 35.33042 | -92.95015 | 38058 ft | 346 kts | 284° |
| 2026-05-08 03:48 | 35.34981 | -93.00436 | 38050 ft | 346 kts | 284° |
| 2026-05-08 03:49 | 35.36913 | -93.05844 | 37341 ft | 347 kts | 284° |
| 2026-05-08 03:49 | 35.37875 | -93.08542 | 36788 ft | 343 kts | 284° |
| 2026-05-08 03:49 | 35.38813 | -93.11174 | 36344 ft | 337 kts | 283° |
| 2026-05-08 03:49 | 35.39745 | -93.13790 | 35895 ft | 331 kts | 283° |
| 2026-05-08 03:50 | 35.40676 | -93.16409 | 35469 ft | 339 kts | 283° |
| 2026-05-08 03:50 | 35.41629 | -93.19088 | 35031 ft | 344 kts | 284° |
| 2026-05-08 03:50 | 35.42592 | -93.21800 | 34610 ft | 347 kts | 284° |
| 2026-05-08 03:50 | 35.43546 | -93.24487 | 34178 ft | 350 kts | 284° |
| 2026-05-08 03:51 | 35.44527 | -93.27252 | 33669 ft | 355 kts | 284° |
| 2026-05-08 03:51 | 35.45517 | -93.30046 | 32977 ft | 359 kts | 285° |
| 2026-05-08 03:51 | 35.46515 | -93.32863 | 32233 ft | 361 kts | 285° |
| 2026-05-08 03:51 | 35.47523 | -93.35713 | 31368 ft | 365 kts | 286° |
| 2026-05-08 03:52 | 35.48535 | -93.38583 | 30529 ft | 366 kts | 287° |
| 2026-05-08 03:52 | 35.49551 | -93.41456 | 29635 ft | 367 kts | 288° |
| 2026-05-08 03:52 | 35.50567 | -93.44336 | 28675 ft | 372 kts | 288° |
| 2026-05-08 03:52 | 35.51596 | -93.47262 | 27684 ft | 383 kts | 289° |
| 2026-05-08 03:53 | 35.52670 | -93.50310 | 26819 ft | 393 kts | 289° |
| 2026-05-08 03:53 | 35.53766 | -93.53425 | 26105 ft | 401 kts | 290° |
| 2026-05-08 03:53 | 35.54874 | -93.56578 | 25373 ft | 403 kts | 290° |
| 2026-05-08 03:53 | 35.55987 | -93.59751 | 24668 ft | 404 kts | 290° |
| 2026-05-08 03:54 | 35.57102 | -93.62930 | 23956 ft | 406 kts | 291° |
| 2026-05-08 03:54 | 35.58220 | -93.66124 | 23154 ft | 407 kts | 291° |
| 2026-05-08 03:54 | 35.59323 | -93.69280 | 22350 ft | 405 kts | 291° |
| 2026-05-08 03:54 | 35.60431 | -93.72450 | 21650 ft | 403 kts | 291° |
| 2026-05-08 03:55 | 35.61533 | -93.75606 | 20913 ft | 400 kts | 291° |
| 2026-05-08 03:55 | 35.62627 | -93.78744 | 20239 ft | 397 kts | 291° |
| 2026-05-08 03:55 | 35.63711 | -93.81856 | 19532 ft | 395 kts | 291° |
| 2026-05-08 03:55 | 35.64791 | -93.84961 | 18842 ft | 393 kts | 291° |
| 2026-05-08 03:56 | 35.65862 | -93.88041 | 18128 ft | 389 kts | 291° |
| 2026-05-08 03:56 | 35.66919 | -93.91084 | 17639 ft | 381 kts | 291° |
| 2026-05-08 03:56 | 35.67931 | -93.94001 | 17308 ft | 370 kts | 291° |
| 2026-05-08 03:56 | 35.68926 | -93.96870 | 17094 ft | 357 kts | 291° |
| 2026-05-08 03:57 | 35.69885 | -93.99635 | 16943 ft | 344 kts | 292° |
| 2026-05-08 03:57 | 35.71135 | -94.02163 | 16171 ft | 353 kts | 311° |
| 2026-05-08 03:57 | 35.73052 | -94.04037 | 15812 ft | 350 kts | 323° |
| 2026-05-08 03:57 | 35.75195 | -94.05437 | 14829 ft | 352 kts | 332° |
| 2026-05-08 03:58 | 35.77449 | -94.06620 | 13482 ft | 361 kts | 333° |
| 2026-05-08 03:58 | 35.79793 | -94.07828 | 12086 ft | 367 kts | 334° |
| 2026-05-08 03:58 | 35.82150 | -94.09022 | 11025 ft | 364 kts | 335° |
| 2026-05-08 03:58 | 35.84460 | -94.10177 | 10064 ft | 359 kts | 335° |
| 2026-05-08 03:59 | 35.86766 | -94.11323 | 8979 ft | 355 kts | 336° |
| 2026-05-08 03:59 | 35.89048 | -94.12457 | 7965 ft | 350 kts | 336° |
| 2026-05-08 03:59 | 35.91292 | -94.13572 | 7015 ft | 345 kts | 337° |
| 2026-05-08 03:59 | 35.93504 | -94.14673 | 6015 ft | 341 kts | 337° |
| 2026-05-08 04:00 | 35.95676 | -94.15757 | 4968 ft | 339 kts | 336° |
| 2026-05-08 04:00 | 35.97872 | -94.16849 | 3930 ft | 339 kts | 337° |
| 2026-05-08 04:00 | 36.00052 | -94.17876 | 3387 ft | 335 kts | 338° |
| 2026-05-08 04:00 | 36.02192 | -94.18850 | 3403 ft | 311 kts | 338° |
| 2026-05-08 04:01 | 36.04128 | -94.19730 | 3431 ft | 282 kts | 338° |
| 2026-05-08 04:01 | 36.05887 | -94.20528 | 3441 ft | 257 kts | 338° |
| 2026-05-08 04:01 | 36.07499 | -94.21258 | 3434 ft | 235 kts | 338° |
| 2026-05-08 04:01 | 36.08983 | -94.21934 | 3426 ft | 221 kts | 338° |
| 2026-05-08 04:02 | 36.10383 | -94.22570 | 3418 ft | 207 kts | 337° |
| 2026-05-08 04:02 | 36.11688 | -94.23164 | 3375 ft | 199 kts | 337° |
| 2026-05-08 04:02 | 36.12990 | -94.23757 | 3438 ft | 198 kts | 337° |
| 2026-05-08 04:02 | 36.14284 | -94.24345 | 3547 ft | 198 kts | 337° |
| 2026-05-08 04:03 | 36.15576 | -94.24933 | 3524 ft | 198 kts | 337° |
| 2026-05-08 04:03 | 36.18113 | -94.26085 | 3151 ft | 179 kts | 336° |
| 2026-05-08 04:03 | 36.19245 | -94.26603 | 2957 ft | 173 kts | 335° |
| 2026-05-08 04:04 | 36.20350 | -94.27107 | 2721 ft | 165 kts | 335° |
| 2026-05-08 04:04 | 36.21412 | -94.27591 | 2503 ft | 163 kts | 335° |
| 2026-05-08 04:04 | 36.22466 | -94.28064 | 2273 ft | 159 kts | 335° |
| 2026-05-08 04:04 | 36.23514 | -94.28543 | 2047 ft | 161 kts | 337° |
| 2026-05-08 04:05 | 36.24556 | -94.29023 | 1863 ft | 156 kts | 338° |
| 2026-05-08 04:05 | 36.25553 | -94.29479 | 1608 ft | 149 kts | 338° |
| 2026-05-08 04:05 | 36.26491 | -94.29909 | 1410 ft | 143 kts | 339° |
| 2026-05-08 04:05 | 36.27394 | -94.30322 | 1286 ft | 132 kts | 339° |
| 2026-05-08 04:06 | 36.28164 | -94.30672 | 1288 ft | 94 kts | 340° |
| 2026-05-08 04:06 | 36.28608 | -94.30872 | 1290 ft | 57 kts | 340° |
| 2026-05-08 04:06 | 36.28882 | -94.30994 | 1291 ft | 23 kts | 347° |
| 2026-05-08 04:06 | 36.28966 | -94.30918 | 1291 ft | 17 kts | 70° |
| 2026-05-08 04:07 | 36.28958 | -94.30823 | 1292 ft | 12 kts | 140° |
| 2026-05-08 04:07 | 36.28914 | -94.30798 | 1291 ft | 0 kts | 160° |
| 2026-05-08 04:08 | 36.28909 | -94.30796 | 1291 ft | 3 kts | 160° |
| 2026-05-08 04:08 | 36.28878 | -94.30782 | 1291 ft | 7 kts | 160° |
| 2026-05-08 04:08 | 36.28819 | -94.30755 | 1290 ft | 11 kts | 160° |
| 2026-05-08 04:08 | 36.28735 | -94.30716 | 1290 ft | 15 kts | 160° |
| 2026-05-08 04:09 | 36.28646 | -94.30673 | 1289 ft | 10 kts | 152° |
| 2026-05-08 04:09 | 36.28615 | -94.30598 | 1288 ft | 11 kts | 86° |
| 2026-05-08 04:09 | 36.28588 | -94.30535 | 1288 ft | 10 kts | 148° |
| 2026-05-08 04:09 | 36.28563 | -94.30522 | 1288 ft | 1 kts | 159° |
| 2026-05-08 04:10 | 36.28540 | -94.30510 | 1287 ft | 6 kts | 159° |
| 2026-05-08 04:10 | 36.28489 | -94.30487 | 1287 ft | 10 kts | 160° |
| 2026-05-08 04:10 | 36.28413 | -94.30450 | 1286 ft | 14 kts | 159° |
| 2026-05-08 04:10 | 36.28340 | -94.30417 | 1287 ft | 12 kts | 160° |
| 2026-05-08 04:11 | 36.28254 | -94.30380 | 1288 ft | 13 kts | 160° |
| 2026-05-08 04:11 | 36.28170 | -94.30340 | 1288 ft | 10 kts | 154° |
| 2026-05-08 04:11 | 36.28158 | -94.30312 | 1284 ft | 1 kts | 77° |
| 2026-05-08 04:11 | 36.28159 | -94.30308 | 1285 ft | 0 kts | 74° |